Time;durP1;ratioP1;P1;durP2;ratioP2;P2;SDS_P1;SDS_P2;PMS_P1;PMS_P2;Temp;Humidity;BMP_temperature;BMP_pressure;BME280_temperature;BME280_humidity;BME280_pressure;Samples;Min_cycle;Max_cycle;Signal;HPM_P1;HPM_P2
2023/05/08 17:40:47;;;;;;;;;5.00;3.67;;;;;19.15;88.80;101853.06;5090816;27;45433;-69
2023/05/08 17:43:12;;;;;;;;;2.00;2.00;;;;;19.34;88.36;101870.63;5057458;28;45210;-71
2023/05/08 17:45:38;;;;;;;;;3.00;3.00;;;;;19.43;87.13;101870.03;5073806;27;45234;-72
2023/05/08 17:48:04;;;;;;;;;5.00;4.67;;;;;19.55;87.57;101871.88;5075559;27;45427;-72
2023/05/08 17:50:29;;;;;;;;;4.67;4.00;;;;;19.64;86.36;101861.38;5063978;27;46298;-72
2023/05/08 17:52:54;;;;;;;;;2.67;2.67;;;;;19.74;90.31;101857.09;5075321;28;45499;-72
2023/05/08 17:55:20;;;;;;;;;2.67;2.67;;;;;19.76;83.66;101855.16;5075581;28;45376;-71
2023/05/08 17:57:45;;;;;;;;;5.33;3.67;;;;;19.77;83.67;101840.78;5075477;28;45209;-72
2023/05/08 18:00:11;;;;;;;;;4.33;4.33;;;;;19.86;84.33;101839.28;5062996;27;51945;-72
2023/05/08 18:02:36;;;;;;;;;3.67;3.67;;;;;19.88;87.18;101833.81;5067050;28;45426;-72
2023/05/08 18:05:01;;;;;;;;;3.67;3.00;;;;;19.98;84.42;101842.94;5067414;27;45475;-73
2023/05/08 18:07:27;;;;;;;;;2.67;2.67;;;;;20.01;83.80;101840.06;5065161;28;45488;-73
2023/05/08 18:09:52;;;;;;;;;2.67;2.67;;;;;20.03;84.44;101844.34;5078388;27;45374;-71
2023/05/08 18:12:17;;;;;;;;;3.33;3.33;;;;;20.04;83.10;101835.31;5064456;28;55725;-70
2023/05/08 18:14:43;;;;;;;;;2.67;1.67;;;;;20.08;82.98;101838.66;5071084;27;45588;-71
2023/05/08 18:17:14;;;;;;;;;5.67;4.00;;;;;20.09;83.71;101837.69;5082053;27;45414;-70
2023/05/08 18:19:40;;;;;;;;;2.00;2.00;;;;;20.08;84.10;101838.66;5087109;27;48581;-71
2023/05/08 18:22:05;;;;;;;;;2.00;2.00;;;;;20.11;82.43;101838.44;5066185;27;45451;-71
2023/05/08 18:24:30;;;;;;;;;3.00;3.00;;;;;20.10;82.87;101844.78;5088057;27;45254;-70
2023/05/08 18:26:56;;;;;;;;;3.67;3.67;;;;;20.06;84.33;101822.63;5086116;27;46159;-71
2023/05/08 18:29:21;;;;;;;;;1.67;1.67;;;;;20.08;83.81;101834.16;5072773;27;45472;-71
2023/05/08 18:31:46;;;;;;;;;2.67;2.67;;;;;20.07;84.42;101835.09;5071862;27;45504;-70
2023/05/08 18:34:11;;;;;;;;;4.67;3.33;;;;;20.06;83.26;101838.75;5069122;27;45418;-71
2023/05/08 18:36:37;;;;;;;;;1.00;0.67;;;;;20.04;84.67;101837.16;5070844;27;45450;-71
2023/05/08 18:39:02;;;;;;;;;3.00;3.00;;;;;19.99;85.73;101828.56;5078132;27;48513;-71
2023/05/08 18:41:28;;;;;;;;;3.67;3.67;;;;;19.91;84.15;101812.13;5104900;27;45402;-71
2023/05/08 18:43:53;;;;;;;;;2.67;2.67;;;;;20.00;84.44;101827.59;5105240;27;45521;-70
2023/05/08 18:46:18;;;;;;;;;3.00;3.00;;;;;19.97;84.44;101828.66;5097220;27;45336;-71
2023/05/08 18:48:43;;;;;;;;;3.67;3.00;;;;;19.91;84.91;101809.44;5080446;27;51722;-72
2023/05/08 18:51:09;;;;;;;;;6.50;3.50;;;;;19.94;85.84;101820.81;5072308;27;53355;-71
2023/05/08 18:53:38;;;;;;;;;4.00;4.00;;;;;19.94;84.35;101818.13;5085309;27;45371;-71
2023/05/08 18:56:04;;;;;;;;;3.00;3.00;;;;;19.80;84.01;101798.59;5089474;27;45508;-69
2023/05/08 18:58:30;;;;;;;;;5.67;5.00;;;;;19.88;83.69;101815.88;5079794;27;45419;-69
2023/05/08 19:00:56;;;;;;;;;5.67;4.67;;;;;19.88;82.87;101813.19;5068979;27;45292;-69
2023/05/08 19:03:22;;;;;;;;;2.67;2.67;;;;;19.86;84.17;101809.75;5082264;27;45501;-69
2023/05/08 19:05:47;;;;;;;;;3.67;2.67;;;;;19.81;85.93;101816.41;5063456;27;45348;-69
2023/05/08 19:08:14;;;;;;;;;3.67;3.67;;;;;19.84;85.07;101814.38;5070236;27;45341;-70
2023/05/08 19:10:40;;;;;;;;;4.33;4.33;;;;;19.82;85.86;101815.47;5082317;27;45423;-69
2023/05/08 19:13:05;;;;;;;;;2.67;2.67;;;;;19.78;85.94;101812.13;5084940;27;45294;-69
2023/05/08 19:15:31;;;;;;;;;4.33;3.67;;;;;19.77;85.67;101810.41;5070408;28;45534;-69
2023/05/08 19:17:56;;;;;;;;;2.67;2.67;;;;;19.75;84.85;101812.34;5080607;27;45717;-71
2023/05/08 19:20:21;;;;;;;;;2.33;2.33;;;;;19.72;84.44;101809.88;5075929;27;45497;-69
2023/05/08 19:22:47;;;;;;;;;5.33;4.67;;;;;19.75;85.75;101815.88;5083019;27;45247;-69
2023/05/08 19:25:12;;;;;;;;;3.00;3.00;;;;;19.74;85.80;101815.97;5071082;27;45331;-72
2023/05/08 19:27:38;;;;;;;;;6.33;4.67;;;;;19.68;87.16;101819.09;5062926;28;45814;-72
2023/05/08 19:30:05;;;;;;;;;4.67;3.67;;;;;19.72;86.17;101826.84;5070936;27;45677;-74
2023/05/08 19:32:30;;;;;;;;;4.67;3.67;;;;;19.69;86.51;101823.50;5085255;27;45224;-74
2023/05/08 19:34:56;;;;;;;;;6.00;4.67;;;;;19.66;86.21;101823.72;5093722;27;45697;-74
2023/05/08 19:37:22;;;;;;;;;3.67;3.67;;;;;19.66;85.57;101829.09;5087606;27;45360;-70
2023/05/08 19:39:48;;;;;;;;;2.67;2.67;;;;;19.64;86.27;101826.50;5079033;27;45334;-71
2023/05/08 19:42:13;;;;;;;;;2.67;2.67;;;;;19.59;87.32;101825.09;5064423;27;45951;-73
2023/05/08 19:44:38;;;;;;;;;4.00;4.00;;;;;19.60;85.59;101821.47;5084486;27;45337;-74
2023/05/08 19:47:04;;;;;;;;;6.67;5.00;;;;;19.57;87.76;101818.97;5073024;28;45533;-74
2023/05/08 19:49:29;;;;;;;;;8.67;6.00;;;;;19.56;87.88;101830.69;5070085;28;45452;-73
2023/05/08 19:51:55;;;;;;;;;6.00;6.00;;;;;19.57;87.45;101843.09;5073849;28;45413;-74
2023/05/08 19:54:20;;;;;;;;;4.33;3.67;;;;;19.54;88.51;101835.28;5071816;28;45481;-73
2023/05/08 19:56:45;;;;;;;;;6.00;5.00;;;;;19.53;88.23;101845.16;5080218;28;45403;-73
2023/05/08 19:59:11;;;;;;;;;4.33;4.33;;;;;19.50;87.22;101836.47;5068727;28;45619;-73
2023/05/08 20:01:36;;;;;;;;;7.67;6.67;;;;;19.50;88.45;101833.78;5080805;27;45938;-72
2023/05/08 20:04:01;;;;;;;;;5.00;5.00;;;;;19.49;86.96;101842.78;5090888;27;45574;-73
2023/05/08 20:06:28;;;;;;;;;6.33;5.00;;;;;19.45;88.51;101835.91;5062007;27;46126;-73
2023/05/08 20:08:53;;;;;;;;;5.00;5.00;;;;;19.49;87.30;101846.34;5064167;28;45375;-72
2023/05/08 20:11:19;;;;;;;;;7.00;5.33;;;;;19.47;88.79;101840.19;5057853;28;45437;-75
2023/05/08 20:13:45;;;;;;;;;6.67;5.00;;;;;19.45;87.74;101843.94;5059617;27;45300;-74
2023/05/08 20:16:10;;;;;;;;;7.67;6.00;;;;;19.35;88.57;101822.22;5056197;28;47134;-74
2023/05/08 20:18:36;;;;;;;;;9.33;7.67;;;;;19.40;88.20;101843.38;5072348;28;45304;-72
2023/05/08 20:21:01;;;;;;;;;7.33;6.33;;;;;19.35;88.16;101832.94;5085386;27;45808;-72
2023/05/08 20:23:27;;;;;;;;;7.67;7.67;;;;;19.38;88.08;101842.59;5075816;27;45348;-74
2023/05/08 20:25:53;;;;;;;;;7.33;6.33;;;;;19.37;87.66;101846.28;5067595;28;45435;-74
2023/05/08 20:28:21;;;;;;;;;8.00;7.00;;;;;19.35;87.16;101843.69;5077396;28;45350;-75
2023/05/08 20:30:47;;;;;;;;;9.33;8.00;;;;;19.35;88.16;101857.09;5068444;28;45294;-72
2023/05/08 20:33:12;;;;;;;;;7.00;6.00;;;;;19.33;87.96;101842.06;5075249;27;45356;-72
2023/05/08 20:35:38;;;;;;;;;6.00;6.00;;;;;19.32;88.31;101846.56;5070308;27;45439;-72
2023/05/08 20:38:03;;;;;;;;;5.33;5.33;;;;;19.31;86.98;101842.16;5079597;27;45371;-73
2023/05/08 20:40:28;;;;;;;;;7.33;7.33;;;;;19.24;87.99;101839.03;5066126;28;45224;-72
2023/05/08 20:42:54;;;;;;;;;4.67;4.00;;;;;19.30;88.46;101826.19;5079357;27;45229;-72
2023/05/08 20:45:19;;;;;;;;;4.67;4.67;;;;;19.28;88.47;101828.97;5074136;27;45480;-72
2023/05/08 20:47:45;;;;;;;;;4.67;4.67;;;;;19.30;89.03;101831.56;5078804;27;45522;-72
2023/05/08 20:50:11;;;;;;;;;7.00;5.67;;;;;19.23;88.71;101821.25;5065975;27;45541;-72
2023/05/08 20:52:36;;;;;;;;;5.00;5.00;;;;;19.27;89.00;101831.75;5077679;27;45401;-71
2023/05/08 20:55:02;;;;;;;;;6.00;6.00;;;;;19.27;88.62;101826.41;5070791;27;46131;-71
2023/05/08 20:57:27;;;;;;;;;5.67;4.33;;;;;19.23;89.77;101815.88;5074494;28;45505;-70
2023/05/08 20:59:53;;;;;;;;;6.33;6.33;;;;;19.22;91.00;101816.81;5075269;27;45333;-70
2023/05/08 21:02:18;;;;;;;;;5.00;5.00;;;;;19.24;91.07;101812.22;5071428;27;45570;-70
2023/05/08 21:04:43;;;;;;;;;6.00;6.00;;;;;19.16;92.37;101801.16;5070369;27;52631;-71
2023/05/08 21:07:08;;;;;;;;;5.67;5.00;;;;;19.21;91.28;101798.13;5065099;28;45485;-71
2023/05/08 21:09:34;;;;;;;;;5.33;5.33;;;;;19.16;91.83;101795.78;5062976;27;45371;-70
2023/05/08 21:11:59;;;;;;;;;4.00;4.00;;;;;19.12;93.84;101786.22;5074201;28;45379;-71
2023/05/08 21:14:24;;;;;;;;;6.67;5.33;;;;;19.13;95.61;101785.25;5078046;28;46797;-74
2023/05/08 21:16:52;;;;;;;;;7.00;6.00;;;;;19.07;97.22;101772.28;5083311;27;45413;-73
2023/05/08 21:19:18;;;;;;;;;8.33;5.00;;;;;19.07;96.59;101776.78;5077410;27;45543;-73
2023/05/08 21:21:44;;;;;;;;;5.67;5.67;;;;;19.00;97.11;101772.78;5067054;27;45631;-74
2023/05/08 21:24:10;;;;;;;;;5.67;5.67;;;;;18.93;97.85;101755.38;5076361;28;46035;-74
2023/05/08 21:26:35;;;;;;;;;4.67;4.67;;;;;18.93;99.11;101760.75;5080091;27;45386;-73
2023/05/08 21:29:03;;;;;;;;;7.00;5.00;;;;;18.83;100.00;101749.78;5068809;28;45474;-74
2023/05/08 21:31:32;;;;;;;;;7.67;5.00;;;;;18.91;100.00;101765.34;5063961;27;45818;-72
2023/05/08 21:33:57;;;;;;;;;6.00;6.00;;;;;18.86;100.00;101760.28;5058026;28;45387;-73
2023/05/08 21:36:23;;;;;;;;;7.33;4.33;;;;;18.85;100.00;101760.41;5063200;27;45406;-72
2023/05/08 21:38:48;;;;;;;;;5.67;5.67;;;;;18.82;100.00;101752.53;5068772;28;45299;-73
2023/05/08 21:41:13;;;;;;;;;7.00;5.33;;;;;18.79;100.00;101763.47;5056233;28;45309;-71
2023/05/08 21:43:39;;;;;;;;;5.00;5.00;;;;;18.76;100.00;101761.00;5069094;28;53857;-72
2023/05/08 21:46:06;;;;;;;;;5.67;5.67;;;;;18.71;100.00;101754.13;5072509;27;45225;-72
2023/05/08 21:48:31;;;;;;;;;7.33;6.67;;;;;18.69;100.00;101755.16;5068948;28;45335;-69
2023/05/08 21:50:57;;;;;;;;;7.33;7.33;;;;;18.65;100.00;101751.00;5075949;27;45612;-70
2023/05/08 21:53:22;;;;;;;;;8.00;8.00;;;;;18.55;100.00;101745.34;5068978;28;45479;-69
2023/05/08 21:55:48;;;;;;;;;6.00;6.00;;;;;18.53;100.00;101747.28;5059755;28;45432;-70
2023/05/08 21:58:13;;;;;;;;;6.67;6.67;;;;;18.53;100.00;101746.41;5078484;28;45290;-72
2023/05/08 22:00:38;;;;;;;;;8.33;7.33;;;;;18.48;100.00;101748.53;5063376;28;45477;-72
2023/05/08 22:03:04;;;;;;;;;4.33;4.33;;;;;18.46;100.00;101748.59;5075735;27;46158;-72
2023/05/08 22:05:29;;;;;;;;;7.00;7.00;;;;;18.49;100.00;101755.56;5070991;28;45422;-73
2023/05/08 22:07:55;;;;;;;;;6.67;6.67;;;;;18.44;100.00;101747.00;5060729;28;45353;-74
2023/05/08 22:10:20;;;;;;;;;8.33;6.67;;;;;18.44;100.00;101749.66;5085033;27;49651;-72
2023/05/08 22:12:47;;;;;;;;;7.00;6.00;;;;;18.42;100.00;101746.25;5059657;28;47110;-73
2023/05/08 22:15:12;;;;;;;;;6.00;6.00;;;;;18.38;100.00;101750.94;5063567;28;45284;-74
2023/05/08 22:17:39;;;;;;;;;4.33;4.00;;;;;18.32;100.00;101734.41;5058011;27;45502;-74
2023/05/08 22:20:09;;;;;;;;;6.00;5.00;;;;;18.28;100.00;101736.41;5068133;27;45653;-72
2023/05/08 22:22:35;;;;;;;;;6.00;6.00;;;;;18.23;100.00;101726.00;5069360;27;45494;-71
2023/05/08 22:25:00;;;;;;;;;5.00;5.00;;;;;18.33;100.00;101741.47;5077353;28;45328;-72
2023/05/08 22:27:25;;;;;;;;;8.33;5.67;;;;;18.29;100.00;101740.78;5073169;28;45783;-72
2023/05/08 22:29:51;;;;;;;;;6.00;6.00;;;;;18.27;100.00;101733.81;5058292;28;50676;-72
2023/05/08 22:32:16;;;;;;;;;10.00;8.00;;;;;18.33;100.00;101738.78;5070082;27;46384;-71
2023/05/08 22:34:42;;;;;;;;;4.67;4.67;;;;;18.28;100.00;101738.22;5072247;28;45404;-73
2023/05/08 22:37:08;;;;;;;;;6.00;5.00;;;;;18.24;100.00;101729.53;5080792;27;45617;-73
2023/05/08 22:39:33;;;;;;;;;6.00;5.00;;;;;18.26;100.00;101724.94;5083060;27;46066;-73
2023/05/08 22:41:59;;;;;;;;;4.67;4.67;;;;;18.21;98.60;101727.91;5079644;27;46255;-72
2023/05/08 22:44:24;;;;;;;;;5.67;5.67;;;;;18.24;98.14;101740.25;5079760;28;45285;-72
2023/05/08 22:46:49;;;;;;;;;4.67;4.67;;;;;18.20;100.00;101728.88;5086915;27;45740;-72
2023/05/08 22:49:15;;;;;;;;;4.33;4.33;;;;;18.03;97.26;101706.81;5077148;27;46214;-73
2023/05/08 22:51:40;;;;;;;;;6.00;5.00;;;;;18.18;95.58;101732.59;5074356;27;45504;-72
2023/05/08 22:54:06;;;;;;;;;5.00;5.00;;;;;18.11;97.05;101712.53;5078136;27;45273;-72
2023/05/08 22:56:31;;;;;;;;;5.00;5.00;;;;;18.08;96.29;101721.63;5085238;27;45827;-73
2023/05/08 22:58:56;;;;;;;;;4.00;4.00;;;;;18.11;97.53;101712.53;5079748;27;48426;-73
2023/05/08 23:01:22;;;;;;;;;6.00;4.33;;;;;18.10;96.50;101709.00;5072672;27;45659;-72
2023/05/08 23:03:50;;;;;;;;;4.33;4.33;;;;;18.10;95.48;101711.66;5065247;27;49742;-72
2023/05/08 23:06:15;;;;;;;;;4.00;4.00;;;;;18.06;94.50;101709.31;5073334;27;45344;-72
2023/05/08 23:08:40;;;;;;;;;4.00;4.00;;;;;18.05;96.24;101710.25;5078464;28;45395;-72
2023/05/08 23:11:06;;;;;;;;;4.67;4.67;;;;;17.99;94.51;101703.47;5073297;28;45453;-73
2023/05/08 23:13:31;;;;;;;;;5.67;5.67;;;;;18.02;98.27;101713.13;5062015;28;51398;-72
2023/05/08 23:15:56;;;;;;;;;3.00;2.00;;;;;18.00;99.05;101709.66;5069627;28;45341;-72
2023/05/08 23:18:22;;;;;;;;;7.33;5.00;;;;;17.90;96.28;101698.69;5060650;28;45361;-72
2023/05/08 23:20:47;;;;;;;;;5.00;5.00;;;;;17.96;98.71;101700.13;5062509;28;46361;-72
2023/05/08 23:23:12;;;;;;;;;3.67;3.67;;;;;17.92;96.17;101698.59;5075973;28;51258;-72
2023/05/08 23:25:38;;;;;;;;;6.00;4.00;;;;;17.87;98.14;101695.34;5062343;27;45327;-72
2023/05/08 23:28:03;;;;;;;;;3.00;3.00;;;;;17.80;93.05;101684.16;5065861;28;49916;-72
2023/05/08 23:30:28;;;;;;;;;5.00;4.67;;;;;17.79;92.06;101681.59;5060977;28;45260;-73
2023/05/08 23:32:54;;;;;;;;;3.00;3.00;;;;;17.82;91.67;101690.31;5073905;28;45315;-72
2023/05/08 23:35:19;;;;;;;;;2.00;2.00;;;;;17.80;89.34;101692.19;5077713;28;45518;-72
2023/05/08 23:37:44;;;;;;;;;4.33;3.67;;;;;17.77;90.20;101692.38;5062176;28;45445;-72
2023/05/08 23:40:10;;;;;;;;;4.33;3.00;;;;;17.68;88.42;101675.09;5070089;27;45268;-72
2023/05/08 23:42:36;;;;;;;;;3.00;3.00;;;;;17.76;87.32;101679.13;5077025;27;45438;-73
2023/05/08 23:45:01;;;;;;;;;2.67;2.67;;;;;17.73;88.25;101676.66;5064611;28;45246;-73
2023/05/08 23:47:26;;;;;;;;;2.67;2.67;;;;;17.72;87.97;101667.75;5073758;28;45292;-72
2023/05/08 23:49:52;;;;;;;;;2.33;2.33;;;;;17.66;87.71;101662.78;5066767;28;45810;-72
2023/05/08 23:52:19;;;;;;;;;4.33;4.33;;;;;17.66;87.52;101665.47;5072154;28;56267;-73
2023/05/08 23:54:44;;;;;;;;;3.33;3.33;;;;;17.52;87.78;101636.88;5063463;28;45505;-72
2023/05/08 23:57:10;;;;;;;;;2.67;2.00;;;;;17.64;87.76;101665.53;5066254;28;45438;-72
2023/05/08 23:59:35;;;;;;;;;4.00;4.00;;;;;17.68;89.11;101672.44;5061201;28;45280;-72
